sensor_id;sensor_type;location;lat;lon;timestamp;temperature;humidity
19088;DHT22;9676;50.916;13.352;2024-01-30T00:02:12;8.40;45.40
19088;DHT22;9676;50.916;13.352;2024-01-30T00:05:02;8.30;45.30
19088;DHT22;9676;50.916;13.352;2024-01-30T00:07:52;8.30;45.40
19088;DHT22;9676;50.916;13.352;2024-01-30T00:10:42;8.30;45.40
19088;DHT22;9676;50.916;13.352;2024-01-30T00:13:31;8.30;45.20
19088;DHT22;9676;50.916;13.352;2024-01-30T00:16:22;8.30;45.10
19088;DHT22;9676;50.916;13.352;2024-01-30T00:19:12;8.30;45.20
19088;DHT22;9676;50.916;13.352;2024-01-30T00:22:02;8.30;45.10
19088;DHT22;9676;50.916;13.352;2024-01-30T00:24:52;8.30;45.20
19088;DHT22;9676;50.916;13.352;2024-01-30T00:27:41;8.20;45.30
19088;DHT22;9676;50.916;13.352;2024-01-30T00:30:30;8.30;46.10
19088;DHT22;9676;50.916;13.352;2024-01-30T00:33:21;8.20;46.20
19088;DHT22;9676;50.916;13.352;2024-01-30T00:36:11;8.20;46.00
19088;DHT22;9676;50.916;13.352;2024-01-30T00:39:00;8.30;45.90
19088;DHT22;9676;50.916;13.352;2024-01-30T00:41:53;8.30;45.90
19088;DHT22;9676;50.916;13.352;2024-01-30T00:44:43;8.30;46.10
19088;DHT22;9676;50.916;13.352;2024-01-30T00:47:32;8.30;46.00
19088;DHT22;9676;50.916;13.352;2024-01-30T00:50:23;8.30;45.90
19088;DHT22;9676;50.916;13.352;2024-01-30T00:53:12;8.30;46.00
19088;DHT22;9676;50.916;13.352;2024-01-30T00:56:02;8.30;46.20
19088;DHT22;9676;50.916;13.352;2024-01-30T00:58:51;8.40;46.30
19088;DHT22;9676;50.916;13.352;2024-01-30T01:01:41;8.40;46.30
19088;DHT22;9676;50.916;13.352;2024-01-30T01:04:30;8.40;46.20
19088;DHT22;9676;50.916;13.352;2024-01-30T01:07:21;8.40;46.50
19088;DHT22;9676;50.916;13.352;2024-01-30T01:10:11;8.40;46.80
19088;DHT22;9676;50.916;13.352;2024-01-30T01:13:01;8.30;46.30
19088;DHT22;9676;50.916;13.352;2024-01-30T01:15:51;8.40;46.50
19088;DHT22;9676;50.916;13.352;2024-01-30T01:18:40;8.40;46.20
19088;DHT22;9676;50.916;13.352;2024-01-30T01:21:30;8.40;46.40
19088;DHT22;9676;50.916;13.352;2024-01-30T01:24:20;8.30;46.10
19088;DHT22;9676;50.916;13.352;2024-01-30T01:27:10;8.30;46.00
19088;DHT22;9676;50.916;13.352;2024-01-30T01:29:59;8.30;46.00
19088;DHT22;9676;50.916;13.352;2024-01-30T01:32:48;8.40;46.10
19088;DHT22;9676;50.916;13.352;2024-01-30T01:35:43;8.40;46.10
19088;DHT22;9676;50.916;13.352;2024-01-30T01:38:32;8.40;46.30
19088;DHT22;9676;50.916;13.352;2024-01-30T01:41:23;8.40;46.00
19088;DHT22;9676;50.916;13.352;2024-01-30T01:44:13;8.40;46.20
19088;DHT22;9676;50.916;13.352;2024-01-30T01:47:02;8.40;46.50
19088;DHT22;9676;50.916;13.352;2024-01-30T01:49:52;8.30;46.30
19088;DHT22;9676;50.916;13.352;2024-01-30T01:52:42;8.30;46.20
19088;DHT22;9676;50.916;13.352;2024-01-30T01:55:31;8.30;46.10
19088;DHT22;9676;50.916;13.352;2024-01-30T01:58:22;8.30;46.50
19088;DHT22;9676;50.916;13.352;2024-01-30T02:01:16;8.30;46.50
19088;DHT22;9676;50.916;13.352;2024-01-30T02:04:08;8.30;46.30
19088;DHT22;9676;50.916;13.352;2024-01-30T02:06:57;8.30;46.10
19088;DHT22;9676;50.916;13.352;2024-01-30T02:09:47;8.30;46.20
19088;DHT22;9676;50.916;13.352;2024-01-30T02:12:37;8.30;46.30
19088;DHT22;9676;50.916;13.352;2024-01-30T02:15:28;8.30;46.50
19088;DHT22;9676;50.916;13.352;2024-01-30T02:21:10;8.30;46.50
19088;DHT22;9676;50.916;13.352;2024-01-30T02:24:00;8.30;46.30
19088;DHT22;9676;50.916;13.352;2024-01-30T02:26:50;8.30;46.30
19088;DHT22;9676;50.916;13.352;2024-01-30T02:29:39;8.30;46.20
19088;DHT22;9676;50.916;13.352;2024-01-30T02:32:29;8.30;46.20
19088;DHT22;9676;50.916;13.352;2024-01-30T02:35:18;8.20;46.00
19088;DHT22;9676;50.916;13.352;2024-01-30T02:38:09;8.30;46.00
19088;DHT22;9676;50.916;13.352;2024-01-30T02:40:58;8.30;45.80
19088;DHT22;9676;50.916;13.352;2024-01-30T02:43:48;8.20;45.70
19088;DHT22;9676;50.916;13.352;2024-01-30T02:46:37;8.20;45.70
19088;DHT22;9676;50.916;13.352;2024-01-30T02:49:26;8.20;45.70
19088;DHT22;9676;50.916;13.352;2024-01-30T02:52:16;8.20;45.70
19088;DHT22;9676;50.916;13.352;2024-01-30T02:55:08;8.20;45.90
19088;DHT22;9676;50.916;13.352;2024-01-30T02:57:57;8.20;45.90
19088;DHT22;9676;50.916;13.352;2024-01-30T03:00:47;8.20;45.90
19088;DHT22;9676;50.916;13.352;2024-01-30T03:03:36;8.20;46.00
19088;DHT22;9676;50.916;13.352;2024-01-30T03:06:26;8.20;46.20
19088;DHT22;9676;50.916;13.352;2024-01-30T03:09:16;8.20;46.20
19088;DHT22;9676;50.916;13.352;2024-01-30T03:12:07;8.20;46.20
19088;DHT22;9676;50.916;13.352;2024-01-30T03:14:58;8.30;46.20
19088;DHT22;9676;50.916;13.352;2024-01-30T03:17:47;8.30;46.20
19088;DHT22;9676;50.916;13.352;2024-01-30T03:20:37;8.30;46.40
19088;DHT22;9676;50.916;13.352;2024-01-30T03:23:26;8.40;46.40
19088;DHT22;9676;50.916;13.352;2024-01-30T03:26:16;8.40;46.40
19088;DHT22;9676;50.916;13.352;2024-01-30T03:29:06;8.40;46.40
19088;DHT22;9676;50.916;13.352;2024-01-30T03:31:56;8.50;46.60
19088;DHT22;9676;50.916;13.352;2024-01-30T03:34:45;8.40;46.50
19088;DHT22;9676;50.916;13.352;2024-01-30T03:37:35;8.50;46.60
19088;DHT22;9676;50.916;13.352;2024-01-30T03:40:25;8.50;46.70
19088;DHT22;9676;50.916;13.352;2024-01-30T03:43:14;8.50;46.70
19088;DHT22;9676;50.916;13.352;2024-01-30T03:46:05;8.50;46.70
19088;DHT22;9676;50.916;13.352;2024-01-30T03:48:55;8.50;46.70
19088;DHT22;9676;50.916;13.352;2024-01-30T03:51:44;8.50;46.80
19088;DHT22;9676;50.916;13.352;2024-01-30T03:54:35;8.50;46.70
19088;DHT22;9676;50.916;13.352;2024-01-30T03:57:24;8.50;46.70
19088;DHT22;9676;50.916;13.352;2024-01-30T04:00:15;8.60;47.50
19088;DHT22;9676;50.916;13.352;2024-01-30T04:03:06;8.60;46.90
19088;DHT22;9676;50.916;13.352;2024-01-30T04:05:55;8.50;46.80
19088;DHT22;9676;50.916;13.352;2024-01-30T04:08:45;8.60;46.90
19088;DHT22;9676;50.916;13.352;2024-01-30T04:11:34;8.60;46.80
19088;DHT22;9676;50.916;13.352;2024-01-30T04:14:23;8.60;46.80
19088;DHT22;9676;50.916;13.352;2024-01-30T04:17:13;8.60;46.80
19088;DHT22;9676;50.916;13.352;2024-01-30T04:20:04;8.50;46.90
19088;DHT22;9676;50.916;13.352;2024-01-30T04:22:55;8.50;47.10
19088;DHT22;9676;50.916;13.352;2024-01-30T04:25:44;8.50;47.50
19088;DHT22;9676;50.916;13.352;2024-01-30T04:28:33;8.50;47.50
19088;DHT22;9676;50.916;13.352;2024-01-30T04:31:23;8.50;47.60
19088;DHT22;9676;50.916;13.352;2024-01-30T04:34:12;8.60;47.80
19088;DHT22;9676;50.916;13.352;2024-01-30T04:37:03;8.60;48.20
19088;DHT22;9676;50.916;13.352;2024-01-30T04:39:52;8.60;47.90
19088;DHT22;9676;50.916;13.352;2024-01-30T04:42:42;8.60;47.80
19088;DHT22;9676;50.916;13.352;2024-01-30T04:45:31;8.60;47.80
19088;DHT22;9676;50.916;13.352;2024-01-30T04:48:21;8.60;47.60
19088;DHT22;9676;50.916;13.352;2024-01-30T04:51:11;8.60;48.00
19088;DHT22;9676;50.916;13.352;2024-01-30T04:54:02;8.60;48.00
19088;DHT22;9676;50.916;13.352;2024-01-30T04:56:52;8.50;48.00
19088;DHT22;9676;50.916;13.352;2024-01-30T04:59:42;8.50;47.50
19088;DHT22;9676;50.916;13.352;2024-01-30T05:02:32;8.50;47.50
19088;DHT22;9676;50.916;13.352;2024-01-30T05:05:21;8.50;47.40
19088;DHT22;9676;50.916;13.352;2024-01-30T05:08:10;8.40;47.40
19088;DHT22;9676;50.916;13.352;2024-01-30T05:11:01;8.40;47.40
19088;DHT22;9676;50.916;13.352;2024-01-30T05:13:51;8.40;47.60
19088;DHT22;9676;50.916;13.352;2024-01-30T05:16:41;8.30;47.50
19088;DHT22;9676;50.916;13.352;2024-01-30T05:19:30;8.30;47.40
19088;DHT22;9676;50.916;13.352;2024-01-30T05:22:20;8.20;47.20
19088;DHT22;9676;50.916;13.352;2024-01-30T05:25:09;8.20;47.30
19088;DHT22;9676;50.916;13.352;2024-01-30T05:28:01;8.20;47.30
19088;DHT22;9676;50.916;13.352;2024-01-30T05:30:50;8.20;47.50
19088;DHT22;9676;50.916;13.352;2024-01-30T05:33:40;8.10;47.40
19088;DHT22;9676;50.916;13.352;2024-01-30T05:36:30;8.10;47.50
19088;DHT22;9676;50.916;13.352;2024-01-30T05:39:19;8.10;47.50
19088;DHT22;9676;50.916;13.352;2024-01-30T05:42:08;8.00;47.40
19088;DHT22;9676;50.916;13.352;2024-01-30T05:45:00;8.00;47.60
19088;DHT22;9676;50.916;13.352;2024-01-30T05:47:49;8.00;47.70
19088;DHT22;9676;50.916;13.352;2024-01-30T05:50:39;8.00;47.60
19088;DHT22;9676;50.916;13.352;2024-01-30T05:53:28;8.00;47.60
19088;DHT22;9676;50.916;13.352;2024-01-30T05:56:17;8.00;47.60
19088;DHT22;9676;50.916;13.352;2024-01-30T05:59:07;8.00;47.50
19088;DHT22;9676;50.916;13.352;2024-01-30T06:01:57;8.00;47.60
19088;DHT22;9676;50.916;13.352;2024-01-30T06:04:47;8.00;47.60
19088;DHT22;9676;50.916;13.352;2024-01-30T06:07:37;7.90;47.60
19088;DHT22;9676;50.916;13.352;2024-01-30T06:10:26;8.00;47.80
19088;DHT22;9676;50.916;13.352;2024-01-30T06:13:16;7.90;47.80
19088;DHT22;9676;50.916;13.352;2024-01-30T06:16:09;8.00;48.00
19088;DHT22;9676;50.916;13.352;2024-01-30T06:19:00;8.00;48.00
19088;DHT22;9676;50.916;13.352;2024-01-30T06:21:50;8.00;48.20
19088;DHT22;9676;50.916;13.352;2024-01-30T06:24:39;8.00;48.10
19088;DHT22;9676;50.916;13.352;2024-01-30T06:27:29;8.00;48.30
19088;DHT22;9676;50.916;13.352;2024-01-30T06:30:18;8.00;48.20
19088;DHT22;9676;50.916;13.352;2024-01-30T06:33:08;8.00;48.10
19088;DHT22;9676;50.916;13.352;2024-01-30T06:35:58;8.00;48.20
19088;DHT22;9676;50.916;13.352;2024-01-30T06:38:48;8.00;48.10
19088;DHT22;9676;50.916;13.352;2024-01-30T06:41:37;8.00;48.10
19088;DHT22;9676;50.916;13.352;2024-01-30T06:44:27;8.00;48.20
19088;DHT22;9676;50.916;13.352;2024-01-30T06:47:20;8.10;48.20
19088;DHT22;9676;50.916;13.352;2024-01-30T06:50:09;8.00;48.10
19088;DHT22;9676;50.916;13.352;2024-01-30T06:53:01;8.10;48.10
19088;DHT22;9676;50.916;13.352;2024-01-30T06:55:52;8.10;48.30
19088;DHT22;9676;50.916;13.352;2024-01-30T06:58:41;8.10;48.20
19088;DHT22;9676;50.916;13.352;2024-01-30T07:01:31;8.10;48.10
19088;DHT22;9676;50.916;13.352;2024-01-30T07:04:20;8.10;48.20
19088;DHT22;9676;50.916;13.352;2024-01-30T07:07:10;8.10;48.10
19088;DHT22;9676;50.916;13.352;2024-01-30T07:10:03;8.20;48.30
19088;DHT22;9676;50.916;13.352;2024-01-30T07:12:53;8.20;48.40
19088;DHT22;9676;50.916;13.352;2024-01-30T07:15:43;8.20;48.40
19088;DHT22;9676;50.916;13.352;2024-01-30T07:18:32;8.20;48.50
19088;DHT22;9676;50.916;13.352;2024-01-30T07:21:21;8.30;48.60
19088;DHT22;9676;50.916;13.352;2024-01-30T07:24:15;8.30;48.70
19088;DHT22;9676;50.916;13.352;2024-01-30T07:27:06;8.40;48.90
19088;DHT22;9676;50.916;13.352;2024-01-30T07:29:56;8.50;49.10
19088;DHT22;9676;50.916;13.352;2024-01-30T07:32:46;8.60;49.30
19088;DHT22;9676;50.916;13.352;2024-01-30T07:35:35;8.80;49.80
19088;DHT22;9676;50.916;13.352;2024-01-30T07:38:25;9.00;50.30
19088;DHT22;9676;50.916;13.352;2024-01-30T07:41:14;9.20;50.80
19088;DHT22;9676;50.916;13.352;2024-01-30T07:44:05;9.40;51.10
19088;DHT22;9676;50.916;13.352;2024-01-30T07:46:55;9.70;51.20
19088;DHT22;9676;50.916;13.352;2024-01-30T07:49:45;10.00;50.40
19088;DHT22;9676;50.916;13.352;2024-01-30T07:52:34;10.30;50.40
19088;DHT22;9676;50.916;13.352;2024-01-30T07:55:25;10.50;50.50
19088;DHT22;9676;50.916;13.352;2024-01-30T07:58:16;10.70;50.50
19088;DHT22;9676;50.916;13.352;2024-01-30T08:01:08;11.00;50.50
19088;DHT22;9676;50.916;13.352;2024-01-30T08:03:58;11.20;50.60
19088;DHT22;9676;50.916;13.352;2024-01-30T08:06:47;11.40;50.60
19088;DHT22;9676;50.916;13.352;2024-01-30T08:09:37;11.60;50.30
19088;DHT22;9676;50.916;13.352;2024-01-30T08:12:26;11.80;50.30
19088;DHT22;9676;50.916;13.352;2024-01-30T08:15:16;12.00;50.30
19088;DHT22;9676;50.916;13.352;2024-01-30T08:18:07;12.20;50.40
19088;DHT22;9676;50.916;13.352;2024-01-30T08:20:56;12.40;50.60
19088;DHT22;9676;50.916;13.352;2024-01-30T08:23:46;12.60;50.80
19088;DHT22;9676;50.916;13.352;2024-01-30T08:26:35;12.80;51.00
19088;DHT22;9676;50.916;13.352;2024-01-30T08:29:24;13.10;51.20
19088;DHT22;9676;50.916;13.352;2024-01-30T08:32:14;13.40;51.50
19088;DHT22;9676;50.916;13.352;2024-01-30T08:35:05;13.70;51.70
19088;DHT22;9676;50.916;13.352;2024-01-30T08:37:56;14.00;51.70
19088;DHT22;9676;50.916;13.352;2024-01-30T08:40:46;14.40;51.50
19088;DHT22;9676;50.916;13.352;2024-01-30T08:43:36;14.70;51.80
19088;DHT22;9676;50.916;13.352;2024-01-30T08:46:25;15.00;52.00
19088;DHT22;9676;50.916;13.352;2024-01-30T08:49:16;15.30;52.00
19088;DHT22;9676;50.916;13.352;2024-01-30T08:52:07;15.70;52.50
19088;DHT22;9676;50.916;13.352;2024-01-30T08:54:57;16.10;52.90
19088;DHT22;9676;50.916;13.352;2024-01-30T08:57:46;16.60;53.20
19088;DHT22;9676;50.916;13.352;2024-01-30T09:00:36;17.00;53.20
19088;DHT22;9676;50.916;13.352;2024-01-30T09:03:25;17.40;53.10
19088;DHT22;9676;50.916;13.352;2024-01-30T09:06:15;17.80;53.30
19088;DHT22;9676;50.916;13.352;2024-01-30T09:09:07;18.30;53.20
19088;DHT22;9676;50.916;13.352;2024-01-30T09:11:57;18.70;53.10
19088;DHT22;9676;50.916;13.352;2024-01-30T09:14:49;19.10;53.30
19088;DHT22;9676;50.916;13.352;2024-01-30T09:17:39;19.40;53.10
19088;DHT22;9676;50.916;13.352;2024-01-30T09:20:28;19.70;52.30
19088;DHT22;9676;50.916;13.352;2024-01-30T09:23:21;20.00;51.90
19088;DHT22;9676;50.916;13.352;2024-01-30T09:26:12;20.20;51.50
19088;DHT22;9676;50.916;13.352;2024-01-30T09:29:01;20.30;50.30
19088;DHT22;9676;50.916;13.352;2024-01-30T09:31:51;20.40;50.50
19088;DHT22;9676;50.916;13.352;2024-01-30T09:34:40;20.50;49.30
19088;DHT22;9676;50.916;13.352;2024-01-30T09:37:30;20.50;48.00
19088;DHT22;9676;50.916;13.352;2024-01-30T09:40:19;20.40;47.70
19088;DHT22;9676;50.916;13.352;2024-01-30T09:43:16;20.30;47.90
19088;DHT22;9676;50.916;13.352;2024-01-30T09:46:09;20.20;45.70
19088;DHT22;9676;50.916;13.352;2024-01-30T09:49:02;20.00;46.30
19088;DHT22;9676;50.916;13.352;2024-01-30T09:51:52;19.80;45.30
19088;DHT22;9676;50.916;13.352;2024-01-30T09:54:43;19.60;45.50
19088;DHT22;9676;50.916;13.352;2024-01-30T09:57:34;19.50;45.00
19088;DHT22;9676;50.916;13.352;2024-01-30T10:00:25;19.40;44.90
19088;DHT22;9676;50.916;13.352;2024-01-30T10:03:15;19.30;44.40
19088;DHT22;9676;50.916;13.352;2024-01-30T10:06:07;19.20;44.20
19088;DHT22;9676;50.916;13.352;2024-01-30T10:08:57;19.20;44.80
19088;DHT22;9676;50.916;13.352;2024-01-30T10:11:48;19.20;45.50
19088;DHT22;9676;50.916;13.352;2024-01-30T10:14:38;19.20;46.40
19088;DHT22;9676;50.916;13.352;2024-01-30T10:17:29;19.30;46.00
19088;DHT22;9676;50.916;13.352;2024-01-30T10:20:21;19.50;46.10
19088;DHT22;9676;50.916;13.352;2024-01-30T10:23:11;19.60;46.10
19088;DHT22;9676;50.916;13.352;2024-01-30T10:26:02;19.80;45.50
19088;DHT22;9676;50.916;13.352;2024-01-30T10:28:53;19.80;45.60
19088;DHT22;9676;50.916;13.352;2024-01-30T10:31:42;19.90;45.20
19088;DHT22;9676;50.916;13.352;2024-01-30T10:34:33;19.90;45.30
19088;DHT22;9676;50.916;13.352;2024-01-30T10:37:25;20.00;45.00
19088;DHT22;9676;50.916;13.352;2024-01-30T10:40:16;20.10;45.90
19088;DHT22;9676;50.916;13.352;2024-01-30T10:43:07;20.30;46.20
19088;DHT22;9676;50.916;13.352;2024-01-30T10:46:06;20.40;46.10
19088;DHT22;9676;50.916;13.352;2024-01-30T10:49:00;20.60;45.20
19088;DHT22;9676;50.916;13.352;2024-01-30T10:51:52;20.70;45.30
19088;DHT22;9676;50.916;13.352;2024-01-30T10:54:44;20.80;44.90
19088;DHT22;9676;50.916;13.352;2024-01-30T10:57:34;20.80;45.20
19088;DHT22;9676;50.916;13.352;2024-01-30T11:00:24;20.90;44.50
19088;DHT22;9676;50.916;13.352;2024-01-30T11:03:14;20.90;44.90
19088;DHT22;9676;50.916;13.352;2024-01-30T11:06:05;20.80;44.00
19088;DHT22;9676;50.916;13.352;2024-01-30T11:09:05;20.70;43.80
19088;DHT22;9676;50.916;13.352;2024-01-30T11:11:58;20.60;42.60
19088;DHT22;9676;50.916;13.352;2024-01-30T11:14:49;20.50;42.40
19088;DHT22;9676;50.916;13.352;2024-01-30T11:17:41;20.30;42.60
19088;DHT22;9676;50.916;13.352;2024-01-30T11:20:34;20.10;41.90
19088;DHT22;9676;50.916;13.352;2024-01-30T11:23:26;19.90;42.30
19088;DHT22;9676;50.916;13.352;2024-01-30T11:26:17;19.70;41.70
19088;DHT22;9676;50.916;13.352;2024-01-30T11:29:08;19.50;41.60
19088;DHT22;9676;50.916;13.352;2024-01-30T11:31:58;19.40;42.30
19088;DHT22;9676;50.916;13.352;2024-01-30T11:34:48;19.30;42.60
19088;DHT22;9676;50.916;13.352;2024-01-30T11:37:38;19.30;42.40
19088;DHT22;9676;50.916;13.352;2024-01-30T11:40:29;19.20;42.40
19088;DHT22;9676;50.916;13.352;2024-01-30T11:43:23;19.20;42.80
19088;DHT22;9676;50.916;13.352;2024-01-30T11:46:13;19.20;42.90
19088;DHT22;9676;50.916;13.352;2024-01-30T11:49:03;19.20;43.00
19088;DHT22;9676;50.916;13.352;2024-01-30T11:51:53;19.20;42.90
19088;DHT22;9676;50.916;13.352;2024-01-30T11:54:42;19.20;43.00
19088;DHT22;9676;50.916;13.352;2024-01-30T11:57:32;19.20;42.60
19088;DHT22;9676;50.916;13.352;2024-01-30T12:00:24;19.20;42.10
19088;DHT22;9676;50.916;13.352;2024-01-30T12:03:14;19.20;41.80
19088;DHT22;9676;50.916;13.352;2024-01-30T12:06:04;19.10;41.50
19088;DHT22;9676;50.916;13.352;2024-01-30T12:08:58;19.00;41.20
19088;DHT22;9676;50.916;13.352;2024-01-30T12:11:48;18.90;40.90
19088;DHT22;9676;50.916;13.352;2024-01-30T12:14:39;18.80;41.00
19088;DHT22;9676;50.916;13.352;2024-01-30T12:17:32;18.60;41.50
19088;DHT22;9676;50.916;13.352;2024-01-30T12:20:22;18.50;40.70
19088;DHT22;9676;50.916;13.352;2024-01-30T12:23:12;18.40;40.90
19088;DHT22;9676;50.916;13.352;2024-01-30T12:26:02;18.30;41.00
19088;DHT22;9676;50.916;13.352;2024-01-30T12:28:55;18.20;41.00
19088;DHT22;9676;50.916;13.352;2024-01-30T12:31:46;18.10;41.10
19088;DHT22;9676;50.916;13.352;2024-01-30T12:34:41;18.10;41.20
19088;DHT22;9676;50.916;13.352;2024-01-30T12:37:48;18.00;41.10
19088;DHT22;9676;50.916;13.352;2024-01-30T12:40:38;17.90;41.30
19088;DHT22;9676;50.916;13.352;2024-01-30T12:43:29;17.90;41.40
19088;DHT22;9676;50.916;13.352;2024-01-30T12:46:28;17.80;41.40
19088;DHT22;9676;50.916;13.352;2024-01-30T12:49:17;17.80;41.50
19088;DHT22;9676;50.916;13.352;2024-01-30T12:52:08;17.80;41.70
19088;DHT22;9676;50.916;13.352;2024-01-30T12:54:58;17.80;41.70
19088;DHT22;9676;50.916;13.352;2024-01-30T12:57:47;17.80;41.80
19088;DHT22;9676;50.916;13.352;2024-01-30T13:00:37;17.80;41.80
19088;DHT22;9676;50.916;13.352;2024-01-30T13:03:26;17.70;41.70
19088;DHT22;9676;50.916;13.352;2024-01-30T13:06:16;17.70;41.80
19088;DHT22;9676;50.916;13.352;2024-01-30T13:09:07;17.60;41.70
19088;DHT22;9676;50.916;13.352;2024-01-30T13:11:57;17.60;41.80
19088;DHT22;9676;50.916;13.352;2024-01-30T13:14:46;17.60;41.90
19088;DHT22;9676;50.916;13.352;2024-01-30T13:17:36;17.50;41.80
19088;DHT22;9676;50.916;13.352;2024-01-30T13:20:25;17.50;41.90
19088;DHT22;9676;50.916;13.352;2024-01-30T13:23:15;17.40;41.90
19088;DHT22;9676;50.916;13.352;2024-01-30T13:26:06;17.40;42.00
19088;DHT22;9676;50.916;13.352;2024-01-30T13:28:55;17.40;42.20
19088;DHT22;9676;50.916;13.352;2024-01-30T13:31:45;17.30;42.20
19088;DHT22;9676;50.916;13.352;2024-01-30T13:34:34;17.30;42.30
19088;DHT22;9676;50.916;13.352;2024-01-30T13:37:24;17.20;42.40
19088;DHT22;9676;50.916;13.352;2024-01-30T13:40:14;17.20;42.40
19088;DHT22;9676;50.916;13.352;2024-01-30T13:43:06;17.20;42.50
19088;DHT22;9676;50.916;13.352;2024-01-30T13:45:55;17.20;42.50
19088;DHT22;9676;50.916;13.352;2024-01-30T13:48:46;17.20;42.60
19088;DHT22;9676;50.916;13.352;2024-01-30T13:51:35;17.10;42.60
19088;DHT22;9676;50.916;13.352;2024-01-30T13:54:25;17.10;42.70
19088;DHT22;9676;50.916;13.352;2024-01-30T13:57:14;17.20;42.80
19088;DHT22;9676;50.916;13.352;2024-01-30T14:00:06;17.10;42.80
19088;DHT22;9676;50.916;13.352;2024-01-30T14:03:02;17.20;42.90
19088;DHT22;9676;50.916;13.352;2024-01-30T14:05:52;17.10;42.90
19088;DHT22;9676;50.916;13.352;2024-01-30T14:08:41;17.10;42.90
19088;DHT22;9676;50.916;13.352;2024-01-30T14:11:40;17.10;42.90
19088;DHT22;9676;50.916;13.352;2024-01-30T14:14:30;17.10;43.00
19088;DHT22;9676;50.916;13.352;2024-01-30T14:17:21;17.00;42.90
19088;DHT22;9676;50.916;13.352;2024-01-30T14:20:10;17.00;42.90
19088;DHT22;9676;50.916;13.352;2024-01-30T14:23:00;16.90;42.90
19088;DHT22;9676;50.916;13.352;2024-01-30T14:25:49;16.90;42.90
19088;DHT22;9676;50.916;13.352;2024-01-30T14:28:40;16.80;42.90
19088;DHT22;9676;50.916;13.352;2024-01-30T14:31:29;16.70;42.80
19088;DHT22;9676;50.916;13.352;2024-01-30T14:34:20;16.70;42.80
19088;DHT22;9676;50.916;13.352;2024-01-30T14:37:10;16.60;42.90
19088;DHT22;9676;50.916;13.352;2024-01-30T14:39:59;16.50;42.80
19088;DHT22;9676;50.916;13.352;2024-01-30T14:42:49;16.40;42.80
19088;DHT22;9676;50.916;13.352;2024-01-30T14:45:38;16.40;42.90
19088;DHT22;9676;50.916;13.352;2024-01-30T14:48:27;16.30;42.80
19088;DHT22;9676;50.916;13.352;2024-01-30T14:51:19;16.20;42.90
19088;DHT22;9676;50.916;13.352;2024-01-30T14:54:09;16.10;42.90
19088;DHT22;9676;50.916;13.352;2024-01-30T14:56:59;16.00;42.90
19088;DHT22;9676;50.916;13.352;2024-01-30T14:59:49;15.90;43.00
19088;DHT22;9676;50.916;13.352;2024-01-30T15:02:38;15.80;43.00
19088;DHT22;9676;50.916;13.352;2024-01-30T15:05:28;15.80;43.10
19088;DHT22;9676;50.916;13.352;2024-01-30T15:08:19;15.70;43.10
19088;DHT22;9676;50.916;13.352;2024-01-30T15:11:10;15.60;43.10
19088;DHT22;9676;50.916;13.352;2024-01-30T15:14:00;15.60;43.20
19088;DHT22;9676;50.916;13.352;2024-01-30T15:16:49;15.50;43.20
19088;DHT22;9676;50.916;13.352;2024-01-30T15:19:39;15.40;43.20
19088;DHT22;9676;50.916;13.352;2024-01-30T15:22:28;15.30;43.30
19088;DHT22;9676;50.916;13.352;2024-01-30T15:25:19;15.30;43.30
19088;DHT22;9676;50.916;13.352;2024-01-30T15:28:09;15.20;43.40
19088;DHT22;9676;50.916;13.352;2024-01-30T15:30:58;15.20;43.50
19088;DHT22;9676;50.916;13.352;2024-01-30T15:33:48;15.10;43.50
19088;DHT22;9676;50.916;13.352;2024-01-30T15:36:37;15.10;43.60
19088;DHT22;9676;50.916;13.352;2024-01-30T15:39:27;15.00;43.70
19088;DHT22;9676;50.916;13.352;2024-01-30T15:42:18;15.00;43.90
19088;DHT22;9676;50.916;13.352;2024-01-30T15:45:07;14.90;43.90
19088;DHT22;9676;50.916;13.352;2024-01-30T15:47:57;14.90;44.00
19088;DHT22;9676;50.916;13.352;2024-01-30T15:50:46;14.80;43.90
19088;DHT22;9676;50.916;13.352;2024-01-30T15:53:36;14.80;44.00
19088;DHT22;9676;50.916;13.352;2024-01-30T15:56:25;14.70;44.00
19088;DHT22;9676;50.916;13.352;2024-01-30T15:59:17;14.70;44.00
19088;DHT22;9676;50.916;13.352;2024-01-30T16:02:07;14.70;44.00
19088;DHT22;9676;50.916;13.352;2024-01-30T16:04:56;14.60;44.00
19088;DHT22;9676;50.916;13.352;2024-01-30T16:07:46;14.60;44.10
19088;DHT22;9676;50.916;13.352;2024-01-30T16:10:35;14.50;44.40
19088;DHT22;9676;50.916;13.352;2024-01-30T16:13:25;14.40;44.10
19088;DHT22;9676;50.916;13.352;2024-01-30T16:16:16;14.40;44.20
19088;DHT22;9676;50.916;13.352;2024-01-30T16:19:05;14.40;44.30
19088;DHT22;9676;50.916;13.352;2024-01-30T16:21:55;14.30;44.20
19088;DHT22;9676;50.916;13.352;2024-01-30T16:24:44;14.30;44.30
19088;DHT22;9676;50.916;13.352;2024-01-30T16:27:35;14.20;44.30
19088;DHT22;9676;50.916;13.352;2024-01-30T16:30:24;14.20;44.30
19088;DHT22;9676;50.916;13.352;2024-01-30T16:33:15;14.20;44.50
19088;DHT22;9676;50.916;13.352;2024-01-30T16:36:06;14.10;44.50
19088;DHT22;9676;50.916;13.352;2024-01-30T16:38:55;14.10;44.60
19088;DHT22;9676;50.916;13.352;2024-01-30T16:41:46;14.00;44.60
19088;DHT22;9676;50.916;13.352;2024-01-30T16:44:35;14.00;44.70
19088;DHT22;9676;50.916;13.352;2024-01-30T16:47:25;14.00;44.80
19088;DHT22;9676;50.916;13.352;2024-01-30T16:50:16;13.90;44.70
19088;DHT22;9676;50.916;13.352;2024-01-30T16:53:06;13.90;44.90
19088;DHT22;9676;50.916;13.352;2024-01-30T16:55:55;13.80;44.80
19088;DHT22;9676;50.916;13.352;2024-01-30T16:58:45;13.80;45.00
19088;DHT22;9676;50.916;13.352;2024-01-30T17:01:34;13.80;45.00
19088;DHT22;9676;50.916;13.352;2024-01-30T17:04:24;13.70;45.00
19088;DHT22;9676;50.916;13.352;2024-01-30T17:07:15;13.70;45.00
19088;DHT22;9676;50.916;13.352;2024-01-30T17:10:05;13.70;45.20
19088;DHT22;9676;50.916;13.352;2024-01-30T17:12:55;13.70;45.30
19088;DHT22;9676;50.916;13.352;2024-01-30T17:15:47;13.60;45.20
19088;DHT22;9676;50.916;13.352;2024-01-30T17:18:37;13.60;45.20
19088;DHT22;9676;50.916;13.352;2024-01-30T17:21:26;13.60;45.30
19088;DHT22;9676;50.916;13.352;2024-01-30T17:24:17;13.50;45.30
19088;DHT22;9676;50.916;13.352;2024-01-30T17:27:13;13.50;45.40
19088;DHT22;9676;50.916;13.352;2024-01-30T17:30:03;13.50;45.50
19088;DHT22;9676;50.916;13.352;2024-01-30T17:32:53;13.40;45.50
19088;DHT22;9676;50.916;13.352;2024-01-30T17:35:42;13.40;45.50
19088;DHT22;9676;50.916;13.352;2024-01-30T17:38:32;13.30;45.60
19088;DHT22;9676;50.916;13.352;2024-01-30T17:41:23;13.30;45.80
19088;DHT22;9676;50.916;13.352;2024-01-30T17:44:12;13.30;46.10
19088;DHT22;9676;50.916;13.352;2024-01-30T17:47:02;13.30;46.20
19088;DHT22;9676;50.916;13.352;2024-01-30T17:49:52;13.20;46.20
19088;DHT22;9676;50.916;13.352;2024-01-30T17:52:42;13.20;46.30
19088;DHT22;9676;50.916;13.352;2024-01-30T17:55:32;13.20;46.50
19088;DHT22;9676;50.916;13.352;2024-01-30T17:58:23;13.20;46.50
19088;DHT22;9676;50.916;13.352;2024-01-30T18:01:12;13.20;46.70
19088;DHT22;9676;50.916;13.352;2024-01-30T18:04:03;13.20;46.60
19088;DHT22;9676;50.916;13.352;2024-01-30T18:06:53;13.20;46.60